Ashburn, VA (20146)

4:36 PM EDT on August 30, 2015 (GMT -0400)
One Loudoun | | Change Station
CLOSE
Current Station
Personal Weather Station
Location: Ashburn, VA
Elevation: 236 ft
Nearby Weather Stations

Elev 236 ft 39.05 °N, 77.46 °W | Updated 10 minutes ago

Mostly Cloudy
Mostly Cloudy
88.0 °F
Feels Like 91 °F
N
2.0
Wind Variable Wind from ESE

Today
High -- | Low -- °F
--% Chance of Precip.
Yesterday
High -- | Low -- °F
Precip. -- in
6:36 AM 7:43 PM
Full, 98% visible
Pressure 30.07 in
Visibility 10.0 miles
Clouds Few 5000 ft
Scattered Clouds 18000 ft
Scattered Clouds 25000 ft
Heat Index 91 °F
Dew Point 68 °F
Humidity 51%
Rainfall 0.00 in
Snow Depth Not available.
UV 1.6 out of 12
Pollen 9.60 out of 12
Air Quality Not available.
Flu Activity Not available.
METAR KIAD 301952Z 22006KT 10SM FEW050 SCT180 SCT250 30/18 A3007 RMK AO2 SLP181 T03000178
Pressure 30.07 in
Visibility 10.0 miles
Clouds Few 5000 ft
Scattered Clouds 18000 ft
Scattered Clouds 25000 ft
Heat Index 91 °F
Dew Point 68 °F
Humidity 51%
Rainfall 0.00 in
Snow Depth Not available.
UV 1.6 out of 12
Pollen 9.60 out of 12
Air Quality Not available.
Flu Activity Not available.
METAR KIAD 301952Z 22006KT 10SM FEW050 SCT180 SCT250 30/18 A3007 RMK AO2 SLP181 T03000178

10-Day Weather Forecast

×

Almanac

Astronomy

Aug. 30, 2015 Rise Set
Actual Time
Civil Twilight
Nautical Twilight
Astronomical Twilight
Moon
Length of Visible Light
Length of Day
Tomorrow will be .
, % of the Moon is Illuminated

Today's Extremes

State Highs State Lows

Community

WunderPhotos

Upload Photos

1,851,056 photos uploaded!

WunderBlogs® & News

Nearby

Air Quality

  Air Quality AQ Index Pollutant
Not available.

Snow Depth

Station Depth Elevation

Earthquake Activity

City Distance Mag. Time & Date
Minimum magnitude displayed is 2.5.

Coastal Water Temperatures

Place Temperature

Stations

Nearby Weather Stations

Station Location Temp. Windchill Dew Point Humidity Wind Precip. Elev Updated Type